sensor_id;sensor_type;location;lat;lon;timestamp;P1;durP1;ratioP1;P2;durP2;ratioP2
41426;SDS011;27171;51.812;19.514;2022-12-18T00:02:00;66.55;;;30.75;;
41426;SDS011;27171;51.812;19.514;2022-12-18T00:05:01;74.75;;;31.75;;
41426;SDS011;27171;51.812;19.514;2022-12-18T00:08:02;74.07;;;32.97;;
41426;SDS011;27171;51.812;19.514;2022-12-18T00:11:04;66.28;;;29.92;;
41426;SDS011;27171;51.812;19.514;2022-12-18T00:14:07;69.10;;;32.13;;
41426;SDS011;27171;51.812;19.514;2022-12-18T00:17:09;70.82;;;30.90;;
41426;SDS011;27171;51.812;19.514;2022-12-18T00:20:10;74.53;;;32.30;;
41426;SDS011;27171;51.812;19.514;2022-12-18T00:23:12;66.75;;;30.50;;
41426;SDS011;27171;51.812;19.514;2022-12-18T00:26:14;72.93;;;31.25;;
41426;SDS011;27171;51.812;19.514;2022-12-18T00:29:17;78.47;;;34.42;;
41426;SDS011;27171;51.812;19.514;2022-12-18T00:32:18;70.30;;;30.95;;
41426;SDS011;27171;51.812;19.514;2022-12-18T00:35:19;75.10;;;32.45;;
41426;SDS011;27171;51.812;19.514;2022-12-18T00:38:21;73.25;;;31.63;;
41426;SDS011;27171;51.812;19.514;2022-12-18T00:41:24;68.53;;;30.02;;
41426;SDS011;27171;51.812;19.514;2022-12-18T00:44:27;77.90;;;31.73;;
41426;SDS011;27171;51.812;19.514;2022-12-18T00:47:30;74.88;;;32.28;;
41426;SDS011;27171;51.812;19.514;2022-12-18T00:50:32;64.88;;;28.50;;
41426;SDS011;27171;51.812;19.514;2022-12-18T00:53:35;78.47;;;32.45;;
41426;SDS011;27171;51.812;19.514;2022-12-18T00:56:37;60.55;;;27.88;;
41426;SDS011;27171;51.812;19.514;2022-12-18T00:59:40;62.45;;;25.23;;
41426;SDS011;27171;51.812;19.514;2022-12-18T01:02:43;70.75;;;29.83;;
41426;SDS011;27171;51.812;19.514;2022-12-18T01:05:45;60.30;;;27.02;;
41426;SDS011;27171;51.812;19.514;2022-12-18T01:08:48;72.43;;;31.67;;
41426;SDS011;27171;51.812;19.514;2022-12-18T01:11:49;61.10;;;28.33;;
41426;SDS011;27171;51.812;19.514;2022-12-18T01:14:52;70.40;;;32.22;;
41426;SDS011;27171;51.812;19.514;2022-12-18T01:17:55;68.85;;;31.58;;
41426;SDS011;27171;51.812;19.514;2022-12-18T01:21:12;60.70;;;25.10;;
41426;SDS011;27171;51.812;19.514;2022-12-18T01:24:16;67.53;;;28.98;;
41426;SDS011;27171;51.812;19.514;2022-12-18T01:27:18;65.18;;;30.27;;
41426;SDS011;27171;51.812;19.514;2022-12-18T01:30:20;69.75;;;29.98;;
41426;SDS011;27171;51.812;19.514;2022-12-18T01:33:22;66.00;;;28.42;;
41426;SDS011;27171;51.812;19.514;2022-12-18T01:36:29;66.38;;;29.27;;
41426;SDS011;27171;51.812;19.514;2022-12-18T01:39:33;59.95;;;27.65;;
41426;SDS011;27171;51.812;19.514;2022-12-18T01:42:36;63.70;;;28.17;;
41426;SDS011;27171;51.812;19.514;2022-12-18T01:45:38;56.10;;;25.65;;
41426;SDS011;27171;51.812;19.514;2022-12-18T01:48:41;58.60;;;28.33;;
41426;SDS011;27171;51.812;19.514;2022-12-18T01:51:45;56.20;;;25.15;;
41426;SDS011;27171;51.812;19.514;2022-12-18T01:54:48;58.95;;;28.23;;
41426;SDS011;27171;51.812;19.514;2022-12-18T01:57:54;59.40;;;27.35;;
41426;SDS011;27171;51.812;19.514;2022-12-18T02:00:59;64.50;;;28.90;;
41426;SDS011;27171;51.812;19.514;2022-12-18T02:07:36;62.83;;;29.48;;
41426;SDS011;27171;51.812;19.514;2022-12-18T02:10:54;47.35;;;23.10;;
41426;SDS011;27171;51.812;19.514;2022-12-18T02:17:42;54.58;;;26.25;;
41426;SDS011;27171;51.812;19.514;2022-12-18T02:20:47;61.88;;;27.75;;
41426;SDS011;27171;51.812;19.514;2022-12-18T02:27:25;67.05;;;30.35;;
41426;SDS011;27171;51.812;19.514;2022-12-18T02:30:31;66.25;;;29.48;;
41426;SDS011;27171;51.812;19.514;2022-12-18T02:33:36;67.35;;;28.17;;
41426;SDS011;27171;51.812;19.514;2022-12-18T02:36:41;48.63;;;21.23;;
41426;SDS011;27171;51.812;19.514;2022-12-18T02:39:46;53.17;;;22.90;;
41426;SDS011;27171;51.812;19.514;2022-12-18T02:42:50;59.80;;;27.02;;
41426;SDS011;27171;51.812;19.514;2022-12-18T02:45:56;62.53;;;26.92;;
41426;SDS011;27171;51.812;19.514;2022-12-18T02:49:12;54.05;;;24.02;;
41426;SDS011;27171;51.812;19.514;2022-12-18T02:59:13;39.30;;;20.25;;
41426;SDS011;27171;51.812;19.514;2022-12-18T03:05:58;66.60;;;29.58;;
41426;SDS011;27171;51.812;19.514;2022-12-18T03:09:43;50.65;;;23.25;;
41426;SDS011;27171;51.812;19.514;2022-12-18T03:12:52;55.33;;;26.40;;
41426;SDS011;27171;51.812;19.514;2022-12-18T03:16:00;59.58;;;27.10;;
41426;SDS011;27171;51.812;19.514;2022-12-18T03:19:06;46.15;;;21.48;;
41426;SDS011;27171;51.812;19.514;2022-12-18T03:25:21;46.13;;;20.08;;
41426;SDS011;27171;51.812;19.514;2022-12-18T03:28:28;57.70;;;27.42;;
41426;SDS011;27171;51.812;19.514;2022-12-18T03:31:37;59.28;;;28.17;;
41426;SDS011;27171;51.812;19.514;2022-12-18T03:34:41;47.55;;;22.50;;
41426;SDS011;27171;51.812;19.514;2022-12-18T03:37:47;45.75;;;19.90;;
41426;SDS011;27171;51.812;19.514;2022-12-18T03:50:27;48.10;;;22.10;;
41426;SDS011;27171;51.812;19.514;2022-12-18T03:57:06;44.42;;;20.45;;
41426;SDS011;27171;51.812;19.514;2022-12-18T04:00:19;46.25;;;21.23;;
41426;SDS011;27171;51.812;19.514;2022-12-18T04:03:35;47.33;;;23.20;;
41426;SDS011;27171;51.812;19.514;2022-12-18T04:06:37;60.22;;;28.60;;
41426;SDS011;27171;51.812;19.514;2022-12-18T04:09:42;45.58;;;22.20;;
41426;SDS011;27171;51.812;19.514;2022-12-18T04:12:47;47.10;;;22.80;;
41426;SDS011;27171;51.812;19.514;2022-12-18T04:15:49;56.13;;;26.20;;
41426;SDS011;27171;51.812;19.514;2022-12-18T04:18:52;62.65;;;28.23;;
41426;SDS011;27171;51.812;19.514;2022-12-18T04:21:56;48.20;;;22.13;;
41426;SDS011;27171;51.812;19.514;2022-12-18T04:24:57;51.67;;;24.13;;
41426;SDS011;27171;51.812;19.514;2022-12-18T04:28:05;44.92;;;20.13;;
41426;SDS011;27171;51.812;19.514;2022-12-18T04:31:07;47.92;;;21.58;;
41426;SDS011;27171;51.812;19.514;2022-12-18T04:34:09;62.28;;;31.58;;
41426;SDS011;27171;51.812;19.514;2022-12-18T04:37:16;44.72;;;22.52;;
41426;SDS011;27171;51.812;19.514;2022-12-18T04:40:18;51.55;;;24.58;;
41426;SDS011;27171;51.812;19.514;2022-12-18T04:43:21;45.80;;;21.50;;
41426;SDS011;27171;51.812;19.514;2022-12-18T04:46:22;49.95;;;23.45;;
41426;SDS011;27171;51.812;19.514;2022-12-18T04:49:24;46.40;;;23.23;;
41426;SDS011;27171;51.812;19.514;2022-12-18T04:52:25;46.67;;;21.17;;
41426;SDS011;27171;51.812;19.514;2022-12-18T04:55:26;58.97;;;24.20;;
41426;SDS011;27171;51.812;19.514;2022-12-18T04:58:27;51.92;;;25.38;;
41426;SDS011;27171;51.812;19.514;2022-12-18T05:01:28;48.65;;;23.58;;
41426;SDS011;27171;51.812;19.514;2022-12-18T05:04:29;42.05;;;20.52;;
41426;SDS011;27171;51.812;19.514;2022-12-18T05:07:30;43.55;;;20.42;;
41426;SDS011;27171;51.812;19.514;2022-12-18T05:10:31;50.03;;;23.83;;
41426;SDS011;27171;51.812;19.514;2022-12-18T05:13:33;60.67;;;27.50;;
41426;SDS011;27171;51.812;19.514;2022-12-18T05:16:35;48.00;;;23.23;;
41426;SDS011;27171;51.812;19.514;2022-12-18T05:19:36;45.58;;;22.65;;
41426;SDS011;27171;51.812;19.514;2022-12-18T05:22:37;46.95;;;22.80;;
41426;SDS011;27171;51.812;19.514;2022-12-18T05:25:38;49.17;;;24.65;;
41426;SDS011;27171;51.812;19.514;2022-12-18T05:28:39;50.47;;;24.10;;
41426;SDS011;27171;51.812;19.514;2022-12-18T05:31:41;54.47;;;24.40;;
41426;SDS011;27171;51.812;19.514;2022-12-18T05:34:42;49.35;;;24.45;;
41426;SDS011;27171;51.812;19.514;2022-12-18T05:37:43;52.75;;;24.55;;
41426;SDS011;27171;51.812;19.514;2022-12-18T05:40:44;52.20;;;23.80;;
41426;SDS011;27171;51.812;19.514;2022-12-18T05:43:46;48.40;;;24.73;;
41426;SDS011;27171;51.812;19.514;2022-12-18T05:46:48;55.75;;;27.58;;
41426;SDS011;27171;51.812;19.514;2022-12-18T05:49:49;58.97;;;28.35;;
41426;SDS011;27171;51.812;19.514;2022-12-18T05:52:51;52.17;;;26.02;;
41426;SDS011;27171;51.812;19.514;2022-12-18T05:55:52;57.55;;;29.33;;
41426;SDS011;27171;51.812;19.514;2022-12-18T05:58:53;64.47;;;28.17;;
41426;SDS011;27171;51.812;19.514;2022-12-18T06:01:55;57.42;;;27.85;;
41426;SDS011;27171;51.812;19.514;2022-12-18T06:04:56;57.63;;;27.85;;
41426;SDS011;27171;51.812;19.514;2022-12-18T06:07:57;57.40;;;26.85;;
41426;SDS011;27171;51.812;19.514;2022-12-18T06:10:58;52.58;;;25.48;;
41426;SDS011;27171;51.812;19.514;2022-12-18T06:13:59;56.65;;;26.50;;
41426;SDS011;27171;51.812;19.514;2022-12-18T06:17:01;59.85;;;26.58;;
41426;SDS011;27171;51.812;19.514;2022-12-18T06:20:03;53.45;;;24.25;;
41426;SDS011;27171;51.812;19.514;2022-12-18T06:23:05;53.15;;;24.50;;
41426;SDS011;27171;51.812;19.514;2022-12-18T06:26:07;73.70;;;33.55;;
41426;SDS011;27171;51.812;19.514;2022-12-18T06:29:10;60.42;;;28.73;;
41426;SDS011;27171;51.812;19.514;2022-12-18T06:32:11;66.75;;;29.30;;
41426;SDS011;27171;51.812;19.514;2022-12-18T06:35:12;60.95;;;28.13;;
41426;SDS011;27171;51.812;19.514;2022-12-18T06:38:13;72.65;;;34.97;;
41426;SDS011;27171;51.812;19.514;2022-12-18T06:41:18;62.67;;;29.52;;
41426;SDS011;27171;51.812;19.514;2022-12-18T06:44:21;60.15;;;28.27;;
41426;SDS011;27171;51.812;19.514;2022-12-18T06:47:22;62.50;;;26.90;;
41426;SDS011;27171;51.812;19.514;2022-12-18T06:50:24;63.67;;;29.38;;
41426;SDS011;27171;51.812;19.514;2022-12-18T06:53:25;68.95;;;32.35;;
41426;SDS011;27171;51.812;19.514;2022-12-18T06:56:26;77.80;;;35.17;;
41426;SDS011;27171;51.812;19.514;2022-12-18T06:59:27;81.95;;;36.38;;
41426;SDS011;27171;51.812;19.514;2022-12-18T07:02:28;89.78;;;38.08;;
41426;SDS011;27171;51.812;19.514;2022-12-18T07:05:30;71.40;;;33.65;;
41426;SDS011;27171;51.812;19.514;2022-12-18T07:08:31;62.72;;;28.67;;
41426;SDS011;27171;51.812;19.514;2022-12-18T07:11:33;63.72;;;28.35;;
41426;SDS011;27171;51.812;19.514;2022-12-18T07:14:34;69.40;;;30.20;;
41426;SDS011;27171;51.812;19.514;2022-12-18T07:17:35;72.65;;;30.45;;
41426;SDS011;27171;51.812;19.514;2022-12-18T07:20:36;69.05;;;31.23;;
41426;SDS011;27171;51.812;19.514;2022-12-18T07:23:37;73.10;;;32.15;;
41426;SDS011;27171;51.812;19.514;2022-12-18T07:26:38;68.10;;;31.52;;
41426;SDS011;27171;51.812;19.514;2022-12-18T07:29:40;65.53;;;29.48;;
41426;SDS011;27171;51.812;19.514;2022-12-18T07:32:41;64.00;;;28.58;;
41426;SDS011;27171;51.812;19.514;2022-12-18T07:35:42;74.15;;;35.53;;
41426;SDS011;27171;51.812;19.514;2022-12-18T07:38:44;68.82;;;28.77;;
41426;SDS011;27171;51.812;19.514;2022-12-18T07:41:48;65.72;;;27.90;;
41426;SDS011;27171;51.812;19.514;2022-12-18T07:44:50;62.60;;;29.25;;
41426;SDS011;27171;51.812;19.514;2022-12-18T07:47:51;67.90;;;27.23;;
41426;SDS011;27171;51.812;19.514;2022-12-18T07:50:52;62.03;;;25.55;;
41426;SDS011;27171;51.812;19.514;2022-12-18T07:53:53;68.72;;;30.08;;
41426;SDS011;27171;51.812;19.514;2022-12-18T07:56:56;62.35;;;25.83;;
41426;SDS011;27171;51.812;19.514;2022-12-18T07:59:57;62.33;;;27.33;;
41426;SDS011;27171;51.812;19.514;2022-12-18T08:03:01;62.88;;;29.00;;
41426;SDS011;27171;51.812;19.514;2022-12-18T08:06:03;58.35;;;28.63;;
41426;SDS011;27171;51.812;19.514;2022-12-18T08:09:05;57.00;;;26.00;;
41426;SDS011;27171;51.812;19.514;2022-12-18T08:12:06;70.05;;;30.17;;
41426;SDS011;27171;51.812;19.514;2022-12-18T08:15:08;67.50;;;29.75;;
41426;SDS011;27171;51.812;19.514;2022-12-18T08:18:09;66.32;;;30.15;;
41426;SDS011;27171;51.812;19.514;2022-12-18T08:21:11;75.15;;;32.75;;
41426;SDS011;27171;51.812;19.514;2022-12-18T08:24:17;68.63;;;30.13;;
41426;SDS011;27171;51.812;19.514;2022-12-18T08:27:18;68.28;;;31.98;;
41426;SDS011;27171;51.812;19.514;2022-12-18T08:30:22;63.05;;;29.58;;
41426;SDS011;27171;51.812;19.514;2022-12-18T08:33:23;53.42;;;26.00;;
41426;SDS011;27171;51.812;19.514;2022-12-18T08:36:24;62.05;;;28.60;;
41426;SDS011;27171;51.812;19.514;2022-12-18T08:39:25;63.40;;;28.38;;
41426;SDS011;27171;51.812;19.514;2022-12-18T08:42:26;60.13;;;27.55;;
41426;SDS011;27171;51.812;19.514;2022-12-18T08:45:28;63.40;;;29.88;;
41426;SDS011;27171;51.812;19.514;2022-12-18T08:48:29;71.72;;;30.65;;
41426;SDS011;27171;51.812;19.514;2022-12-18T08:51:30;65.60;;;29.55;;
41426;SDS011;27171;51.812;19.514;2022-12-18T08:54:32;62.95;;;27.67;;
41426;SDS011;27171;51.812;19.514;2022-12-18T08:57:33;61.97;;;29.20;;
41426;SDS011;27171;51.812;19.514;2022-12-18T09:00:34;68.35;;;30.33;;
41426;SDS011;27171;51.812;19.514;2022-12-18T09:03:36;64.90;;;29.45;;
41426;SDS011;27171;51.812;19.514;2022-12-18T09:06:38;60.03;;;30.50;;
41426;SDS011;27171;51.812;19.514;2022-12-18T09:09:39;58.67;;;28.25;;
41426;SDS011;27171;51.812;19.514;2022-12-18T09:12:40;56.20;;;25.88;;
41426;SDS011;27171;51.812;19.514;2022-12-18T09:15:42;64.97;;;26.73;;
41426;SDS011;27171;51.812;19.514;2022-12-18T09:18:45;66.50;;;29.42;;
41426;SDS011;27171;51.812;19.514;2022-12-18T09:21:46;55.10;;;25.45;;
41426;SDS011;27171;51.812;19.514;2022-12-18T09:24:48;81.07;;;37.13;;
41426;SDS011;27171;51.812;19.514;2022-12-18T09:27:49;58.40;;;29.35;;
41426;SDS011;27171;51.812;19.514;2022-12-18T09:30:50;64.38;;;30.95;;
41426;SDS011;27171;51.812;19.514;2022-12-18T09:33:51;65.55;;;30.45;;
41426;SDS011;27171;51.812;19.514;2022-12-18T09:36:54;69.63;;;31.42;;
41426;SDS011;27171;51.812;19.514;2022-12-18T09:39:56;64.85;;;29.92;;
41426;SDS011;27171;51.812;19.514;2022-12-18T09:43:00;87.65;;;38.88;;
41426;SDS011;27171;51.812;19.514;2022-12-18T09:46:07;75.15;;;33.28;;
41426;SDS011;27171;51.812;19.514;2022-12-18T09:49:13;65.50;;;29.63;;
41426;SDS011;27171;51.812;19.514;2022-12-18T09:55:40;86.50;;;38.58;;
41426;SDS011;27171;51.812;19.514;2022-12-18T09:58:45;67.40;;;30.75;;
41426;SDS011;27171;51.812;19.514;2022-12-18T10:02:12;79.15;;;36.08;;
41426;SDS011;27171;51.812;19.514;2022-12-18T10:05:24;64.05;;;29.33;;
41426;SDS011;27171;51.812;19.514;2022-12-18T10:28:21;59.55;;;27.20;;
41426;SDS011;27171;51.812;19.514;2022-12-18T10:31:24;61.95;;;28.75;;
41426;SDS011;27171;51.812;19.514;2022-12-18T10:34:26;57.00;;;26.05;;
41426;SDS011;27171;51.812;19.514;2022-12-18T10:37:29;62.50;;;28.90;;
41426;SDS011;27171;51.812;19.514;2022-12-18T10:40:30;60.15;;;26.50;;
41426;SDS011;27171;51.812;19.514;2022-12-18T10:43:33;58.00;;;25.83;;
41426;SDS011;27171;51.812;19.514;2022-12-18T10:50:45;57.83;;;23.40;;
41426;SDS011;27171;51.812;19.514;2022-12-18T10:53:56;52.83;;;22.88;;
41426;SDS011;27171;51.812;19.514;2022-12-18T11:00:30;78.70;;;35.03;;
41426;SDS011;27171;51.812;19.514;2022-12-18T11:10:00;83.00;;;37.20;;
41426;SDS011;27171;51.812;19.514;2022-12-18T11:13:15;97.20;;;42.30;;
41426;SDS011;27171;51.812;19.514;2022-12-18T11:16:19;79.70;;;34.90;;
41426;SDS011;27171;51.812;19.514;2022-12-18T11:19:23;67.22;;;31.83;;
41426;SDS011;27171;51.812;19.514;2022-12-18T11:22:27;65.47;;;28.13;;
41426;SDS011;27171;51.812;19.514;2022-12-18T11:25:31;67.50;;;31.30;;
41426;SDS011;27171;51.812;19.514;2022-12-18T11:31:39;68.93;;;29.95;;
41426;SDS011;27171;51.812;19.514;2022-12-18T11:34:45;63.15;;;28.63;;
41426;SDS011;27171;51.812;19.514;2022-12-18T11:37:56;57.45;;;26.75;;
41426;SDS011;27171;51.812;19.514;2022-12-18T11:44:38;63.47;;;25.40;;
41426;SDS011;27171;51.812;19.514;2022-12-18T11:50:59;63.42;;;27.50;;
41426;SDS011;27171;51.812;19.514;2022-12-18T11:54:09;57.72;;;27.40;;
41426;SDS011;27171;51.812;19.514;2022-12-18T11:57:22;66.13;;;28.77;;
41426;SDS011;27171;51.812;19.514;2022-12-18T12:00:25;60.97;;;28.60;;
41426;SDS011;27171;51.812;19.514;2022-12-18T12:03:38;60.50;;;26.52;;
41426;SDS011;27171;51.812;19.514;2022-12-18T12:07:05;58.53;;;27.85;;
41426;SDS011;27171;51.812;19.514;2022-12-18T12:10:28;53.50;;;25.35;;
41426;SDS011;27171;51.812;19.514;2022-12-18T12:14:00;61.97;;;27.42;;
41426;SDS011;27171;51.812;19.514;2022-12-18T12:40:16;54.20;;;23.70;;
41426;SDS011;27171;51.812;19.514;2022-12-18T12:46:37;56.03;;;26.20;;
41426;SDS011;27171;51.812;19.514;2022-12-18T12:49:41;60.67;;;28.77;;
41426;SDS011;27171;51.812;19.514;2022-12-18T12:52:47;61.05;;;28.70;;
41426;SDS011;27171;51.812;19.514;2022-12-18T12:55:55;65.22;;;29.08;;
41426;SDS011;27171;51.812;19.514;2022-12-18T13:02:34;57.45;;;28.23;;
41426;SDS011;27171;51.812;19.514;2022-12-18T13:08:53;67.57;;;29.88;;
41426;SDS011;27171;51.812;19.514;2022-12-18T13:12:00;71.00;;;32.42;;
41426;SDS011;27171;51.812;19.514;2022-12-18T13:15:20;66.20;;;30.02;;
41426;SDS011;27171;51.812;19.514;2022-12-18T13:18:33;62.22;;;29.60;;
41426;SDS011;27171;51.812;19.514;2022-12-18T13:21:35;63.38;;;30.05;;
41426;SDS011;27171;51.812;19.514;2022-12-18T13:24:36;75.47;;;34.95;;
41426;SDS011;27171;51.812;19.514;2022-12-18T13:30:51;84.90;;;42.53;;
41426;SDS011;27171;51.812;19.514;2022-12-18T13:34:00;70.85;;;32.90;;
41426;SDS011;27171;51.812;19.514;2022-12-18T13:46:56;64.35;;;31.23;;
41426;SDS011;27171;51.812;19.514;2022-12-18T13:49:58;76.13;;;36.00;;
41426;SDS011;27171;51.812;19.514;2022-12-18T13:53:02;70.05;;;33.10;;
41426;SDS011;27171;51.812;19.514;2022-12-18T13:56:05;69.10;;;31.25;;
41426;SDS011;27171;51.812;19.514;2022-12-18T14:02:26;80.53;;;37.72;;
41426;SDS011;27171;51.812;19.514;2022-12-18T14:05:30;79.22;;;36.88;;
41426;SDS011;27171;51.812;19.514;2022-12-18T14:08:39;79.28;;;34.75;;
41426;SDS011;27171;51.812;19.514;2022-12-18T14:11:46;74.80;;;35.50;;
41426;SDS011;27171;51.812;19.514;2022-12-18T14:14:48;58.10;;;30.27;;
41426;SDS011;27171;51.812;19.514;2022-12-18T14:17:52;66.57;;;32.85;;
41426;SDS011;27171;51.812;19.514;2022-12-18T14:20:58;74.57;;;31.73;;
41426;SDS011;27171;51.812;19.514;2022-12-18T14:27:25;64.80;;;31.00;;
41426;SDS011;27171;51.812;19.514;2022-12-18T14:30:32;60.20;;;28.65;;
41426;SDS011;27171;51.812;19.514;2022-12-18T14:33:37;71.68;;;31.13;;
41426;SDS011;27171;51.812;19.514;2022-12-18T14:36:38;63.40;;;28.58;;
41426;SDS011;27171;51.812;19.514;2022-12-18T14:39:39;65.95;;;31.75;;
41426;SDS011;27171;51.812;19.514;2022-12-18T14:42:41;55.38;;;25.73;;
41426;SDS011;27171;51.812;19.514;2022-12-18T14:45:43;58.50;;;27.98;;
41426;SDS011;27171;51.812;19.514;2022-12-18T14:48:45;60.00;;;27.50;;
41426;SDS011;27171;51.812;19.514;2022-12-18T14:51:52;50.08;;;23.70;;
41426;SDS011;27171;51.812;19.514;2022-12-18T14:54:55;58.05;;;23.80;;
41426;SDS011;27171;51.812;19.514;2022-12-18T14:57:56;53.70;;;23.55;;
41426;SDS011;27171;51.812;19.514;2022-12-18T15:00:58;61.38;;;28.60;;
41426;SDS011;27171;51.812;19.514;2022-12-18T15:04:00;52.60;;;26.50;;
41426;SDS011;27171;51.812;19.514;2022-12-18T15:07:04;54.60;;;25.00;;
41426;SDS011;27171;51.812;19.514;2022-12-18T15:10:22;55.67;;;26.75;;
41426;SDS011;27171;51.812;19.514;2022-12-18T15:13:35;45.35;;;21.15;;
41426;SDS011;27171;51.812;19.514;2022-12-18T15:16:36;45.45;;;21.38;;
41426;SDS011;27171;51.812;19.514;2022-12-18T15:19:38;54.03;;;24.13;;
41426;SDS011;27171;51.812;19.514;2022-12-18T15:22:41;55.70;;;25.73;;
41426;SDS011;27171;51.812;19.514;2022-12-18T15:25:42;50.08;;;21.95;;
41426;SDS011;27171;51.812;19.514;2022-12-18T15:28:50;42.50;;;19.52;;
41426;SDS011;27171;51.812;19.514;2022-12-18T15:31:59;51.53;;;22.35;;
41426;SDS011;27171;51.812;19.514;2022-12-18T15:35:09;43.30;;;20.73;;
41426;SDS011;27171;51.812;19.514;2022-12-18T15:38:15;45.15;;;20.08;;
41426;SDS011;27171;51.812;19.514;2022-12-18T15:41:17;42.20;;;19.40;;
41426;SDS011;27171;51.812;19.514;2022-12-18T15:44:22;49.45;;;22.15;;
41426;SDS011;27171;51.812;19.514;2022-12-18T15:47:25;50.63;;;21.83;;
41426;SDS011;27171;51.812;19.514;2022-12-18T15:50:27;50.50;;;22.20;;
41426;SDS011;27171;51.812;19.514;2022-12-18T15:53:29;60.97;;;27.42;;
41426;SDS011;27171;51.812;19.514;2022-12-18T15:56:32;54.80;;;23.27;;
41426;SDS011;27171;51.812;19.514;2022-12-18T15:59:34;57.50;;;23.33;;
41426;SDS011;27171;51.812;19.514;2022-12-18T16:02:35;52.70;;;22.48;;
41426;SDS011;27171;51.812;19.514;2022-12-18T16:05:37;51.50;;;21.90;;
41426;SDS011;27171;51.812;19.514;2022-12-18T16:08:38;53.65;;;21.88;;
41426;SDS011;27171;51.812;19.514;2022-12-18T16:11:41;46.47;;;20.92;;
41426;SDS011;27171;51.812;19.514;2022-12-18T16:14:43;48.05;;;22.08;;
41426;SDS011;27171;51.812;19.514;2022-12-18T16:17:45;54.85;;;24.10;;
41426;SDS011;27171;51.812;19.514;2022-12-18T16:20:47;54.10;;;22.60;;
41426;SDS011;27171;51.812;19.514;2022-12-18T16:23:48;60.53;;;24.63;;
41426;SDS011;27171;51.812;19.514;2022-12-18T16:26:50;57.30;;;26.27;;
41426;SDS011;27171;51.812;19.514;2022-12-18T16:29:52;59.88;;;25.77;;
41426;SDS011;27171;51.812;19.514;2022-12-18T16:32:53;58.08;;;24.02;;
41426;SDS011;27171;51.812;19.514;2022-12-18T16:35:55;48.30;;;20.65;;
41426;SDS011;27171;51.812;19.514;2022-12-18T16:38:56;56.40;;;22.35;;
41426;SDS011;27171;51.812;19.514;2022-12-18T16:41:57;46.05;;;19.83;;
41426;SDS011;27171;51.812;19.514;2022-12-18T16:44:59;58.00;;;24.52;;
41426;SDS011;27171;51.812;19.514;2022-12-18T16:48:00;54.47;;;21.90;;
41426;SDS011;27171;51.812;19.514;2022-12-18T16:51:02;45.75;;;19.38;;
41426;SDS011;27171;51.812;19.514;2022-12-18T16:54:04;48.70;;;20.77;;
41426;SDS011;27171;51.812;19.514;2022-12-18T16:57:06;49.20;;;21.33;;
41426;SDS011;27171;51.812;19.514;2022-12-18T17:00:09;60.03;;;23.88;;
41426;SDS011;27171;51.812;19.514;2022-12-18T17:03:11;47.70;;;21.48;;
41426;SDS011;27171;51.812;19.514;2022-12-18T17:06:12;47.22;;;21.13;;
41426;SDS011;27171;51.812;19.514;2022-12-18T17:09:14;59.10;;;22.73;;
41426;SDS011;27171;51.812;19.514;2022-12-18T17:12:16;55.03;;;23.30;;
41426;SDS011;27171;51.812;19.514;2022-12-18T17:15:17;51.90;;;24.98;;
41426;SDS011;27171;51.812;19.514;2022-12-18T17:18:19;49.22;;;21.40;;
41426;SDS011;27171;51.812;19.514;2022-12-18T17:21:20;74.60;;;25.50;;
41426;SDS011;27171;51.812;19.514;2022-12-18T17:24:21;73.30;;;28.65;;
41426;SDS011;27171;51.812;19.514;2022-12-18T17:27:22;69.70;;;31.08;;
41426;SDS011;27171;51.812;19.514;2022-12-18T17:30:24;70.97;;;28.95;;
41426;SDS011;27171;51.812;19.514;2022-12-18T17:33:25;65.03;;;27.85;;
41426;SDS011;27171;51.812;19.514;2022-12-18T17:36:27;79.88;;;31.83;;
41426;SDS011;27171;51.812;19.514;2022-12-18T17:39:29;72.55;;;32.03;;
41426;SDS011;27171;51.812;19.514;2022-12-18T17:42:30;73.93;;;30.05;;
41426;SDS011;27171;51.812;19.514;2022-12-18T17:45:33;85.38;;;31.30;;
41426;SDS011;27171;51.812;19.514;2022-12-18T17:48:39;79.50;;;28.60;;
41426;SDS011;27171;51.812;19.514;2022-12-18T17:51:40;54.15;;;23.00;;
41426;SDS011;27171;51.812;19.514;2022-12-18T17:54:42;52.25;;;23.73;;
41426;SDS011;27171;51.812;19.514;2022-12-18T17:57:43;69.72;;;26.73;;
41426;SDS011;27171;51.812;19.514;2022-12-18T18:00:44;59.42;;;25.23;;
41426;SDS011;27171;51.812;19.514;2022-12-18T18:03:46;65.38;;;25.85;;
41426;SDS011;27171;51.812;19.514;2022-12-18T18:06:47;64.60;;;28.50;;
41426;SDS011;27171;51.812;19.514;2022-12-18T18:09:49;70.43;;;31.38;;
41426;SDS011;27171;51.812;19.514;2022-12-18T18:12:50;64.05;;;26.83;;
41426;SDS011;27171;51.812;19.514;2022-12-18T18:15:55;67.32;;;25.00;;
41426;SDS011;27171;51.812;19.514;2022-12-18T18:18:57;70.55;;;26.65;;
41426;SDS011;27171;51.812;19.514;2022-12-18T18:22:00;67.85;;;25.58;;
41426;SDS011;27171;51.812;19.514;2022-12-18T18:25:01;69.65;;;26.38;;
41426;SDS011;27171;51.812;19.514;2022-12-18T18:28:03;78.60;;;30.15;;
41426;SDS011;27171;51.812;19.514;2022-12-18T18:31:05;64.97;;;27.52;;
41426;SDS011;27171;51.812;19.514;2022-12-18T18:34:08;78.50;;;29.35;;
41426;SDS011;27171;51.812;19.514;2022-12-18T18:37:18;59.58;;;25.35;;
41426;SDS011;27171;51.812;19.514;2022-12-18T18:40:19;77.55;;;29.48;;
41426;SDS011;27171;51.812;19.514;2022-12-18T18:43:20;83.15;;;29.55;;
41426;SDS011;27171;51.812;19.514;2022-12-18T18:46:21;87.70;;;36.22;;
41426;SDS011;27171;51.812;19.514;2022-12-18T18:49:23;75.78;;;32.55;;
41426;SDS011;27171;51.812;19.514;2022-12-18T18:52:25;73.57;;;28.95;;
41426;SDS011;27171;51.812;19.514;2022-12-18T18:55:26;76.63;;;30.80;;
41426;SDS011;27171;51.812;19.514;2022-12-18T18:58:29;75.45;;;32.88;;
41426;SDS011;27171;51.812;19.514;2022-12-18T19:01:30;68.60;;;28.98;;
41426;SDS011;27171;51.812;19.514;2022-12-18T19:04:32;75.18;;;29.60;;
41426;SDS011;27171;51.812;19.514;2022-12-18T19:07:35;73.63;;;31.05;;
41426;SDS011;27171;51.812;19.514;2022-12-18T19:10:38;67.75;;;26.77;;
41426;SDS011;27171;51.812;19.514;2022-12-18T19:13:40;55.90;;;25.23;;
41426;SDS011;27171;51.812;19.514;2022-12-18T19:16:41;61.15;;;24.63;;
41426;SDS011;27171;51.812;19.514;2022-12-18T19:19:43;68.65;;;28.58;;
41426;SDS011;27171;51.812;19.514;2022-12-18T19:22:44;61.55;;;26.40;;
41426;SDS011;27171;51.812;19.514;2022-12-18T19:25:46;64.78;;;26.00;;
41426;SDS011;27171;51.812;19.514;2022-12-18T19:28:49;52.40;;;23.38;;
41426;SDS011;27171;51.812;19.514;2022-12-18T19:31:50;61.05;;;26.35;;
41426;SDS011;27171;51.812;19.514;2022-12-18T19:34:52;65.93;;;24.90;;
41426;SDS011;27171;51.812;19.514;2022-12-18T19:37:53;61.97;;;25.45;;
41426;SDS011;27171;51.812;19.514;2022-12-18T19:40:55;56.97;;;24.77;;
41426;SDS011;27171;51.812;19.514;2022-12-18T19:43:58;45.65;;;20.88;;
41426;SDS011;27171;51.812;19.514;2022-12-18T19:47:00;54.72;;;22.45;;
41426;SDS011;27171;51.812;19.514;2022-12-18T19:50:01;53.75;;;23.67;;
41426;SDS011;27171;51.812;19.514;2022-12-18T19:53:02;56.20;;;23.08;;
41426;SDS011;27171;51.812;19.514;2022-12-18T19:56:07;55.70;;;26.40;;